Time;durP1;ratioP1;P1;durP2;ratioP2;P2;SDS_P1;SDS_P2;PMS_P1;PMS_P2;Temp;Humidity;BMP_temperature;BMP_pressure;BME280_temperature;BME280_humidity;BME280_pressure;Samples;Min_cycle;Max_cycle;Signal;HPM_P1;HPM_P2
2022/07/25 00:02:04;;;;;;;17.80;12.87;;;22.70;20.60;;;;;;4956054;28;20505;-58
2022/07/25 00:04:31;;;;;;;13.77;12.37;;;22.70;20.70;;;;;;4964134;28;20467;-60
2022/07/25 00:06:57;;;;;;;14.10;11.50;;;22.70;20.80;;;;;;4965445;28;20900;-59
2022/07/25 00:09:24;;;;;;;13.10;11.70;;;22.60;21.10;;;;;;4967394;28;20472;-58
2022/07/25 00:11:51;;;;;;;14.00;12.30;;;22.60;21.10;;;;;;4962805;28;20486;-59
2022/07/25 00:14:18;;;;;;;12.70;11.30;;;22.60;21.00;;;;;;4963021;28;20485;-58
2022/07/25 00:16:46;;;;;;;13.80;11.90;;;22.60;21.30;;;;;;4966001;28;20482;-58
2022/07/25 00:19:13;;;;;;;15.10;13.60;;;22.50;21.30;;;;;;4966983;28;20466;-59
2022/07/25 00:21:40;;;;;;;13.67;12.20;;;22.50;21.40;;;;;;4965387;28;20963;-58
2022/07/25 00:24:07;;;;;;;15.03;12.87;;;22.50;21.50;;;;;;4965224;28;20493;-57
2022/07/25 00:26:34;;;;;;;15.53;13.03;;;22.50;21.60;;;;;;4962742;28;21009;-57
2022/07/25 00:29:01;;;;;;;14.27;11.80;;;22.40;21.50;;;;;;4965194;28;20485;-58
2022/07/25 00:31:28;;;;;;;15.97;14.23;;;22.40;21.40;;;;;;4966163;28;20489;-58
2022/07/25 00:33:56;;;;;;;13.50;12.10;;;22.40;21.40;;;;;;4959667;28;20474;-57
2022/07/25 00:36:23;;;;;;;16.13;14.03;;;22.40;21.40;;;;;;4960974;28;20457;-57
2022/07/25 00:38:49;;;;;;;16.20;12.00;;;22.30;21.90;;;;;;4961975;28;20474;-58
2022/07/25 00:41:16;;;;;;;26.53;21.20;;;22.20;22.30;;;;;;4962903;28;20469;-57
2022/07/25 00:43:44;;;;;;;18.50;16.60;;;22.30;22.70;;;;;;4961179;28;20481;-58
2022/07/25 00:46:12;;;;;;;18.77;15.77;;;22.20;23.00;;;;;;4962195;28;20465;-58
2022/07/25 00:48:39;;;;;;;18.53;15.93;;;22.10;23.10;;;;;;4958553;28;20524;-59
2022/07/25 00:51:08;;;;;;;17.40;15.60;;;22.10;22.70;;;;;;4959579;28;20489;-59
2022/07/25 00:53:35;;;;;;;21.20;14.90;;;22.10;22.70;;;;;;4959903;28;20490;-58
2022/07/25 00:56:03;;;;;;;17.00;14.53;;;22.10;22.60;;;;;;4961124;28;20470;-58
2022/07/25 00:58:29;;;;;;;16.37;14.17;;;22.10;22.60;;;;;;4960723;28;20477;-58
2022/07/25 01:00:56;;;;;;;21.00;14.47;;;22.10;22.80;;;;;;4963825;28;20486;-60
2022/07/25 01:03:23;;;;;;;19.03;13.90;;;22.10;22.80;;;;;;4978166;28;20477;-59
2022/07/25 01:05:51;;;;;;;16.10;12.97;;;22.00;23.10;;;;;;4964474;28;20540;-58
2022/07/25 01:08:20;;;;;;;14.53;13.03;;;22.00;23.20;;;;;;4962573;28;21043;-57
2022/07/25 01:10:47;;;;;;;16.87;15.07;;;21.90;23.70;;;;;;4962575;28;20465;-56
2022/07/25 01:13:15;;;;;;;15.57;13.93;;;21.90;23.80;;;;;;4964745;28;20481;-58
2022/07/25 01:15:43;;;;;;;16.50;13.90;;;21.80;23.80;;;;;;4960645;28;20463;-57
2022/07/25 01:18:09;;;;;;;17.53;14.47;;;21.80;24.00;;;;;;4964684;28;20462;-59
2022/07/25 01:20:38;;;;;;;23.00;15.17;;;21.80;23.80;;;;;;4963375;28;21155;-56
2022/07/25 01:23:04;;;;;;;16.83;12.90;;;21.80;23.90;;;;;;4964233;28;21024;-58
2022/07/25 01:25:31;;;;;;;16.53;14.83;;;21.70;23.90;;;;;;4963727;28;20981;-56
2022/07/25 01:27:58;;;;;;;16.67;14.40;;;21.70;24.20;;;;;;4964357;28;20492;-59
2022/07/25 01:30:25;;;;;;;16.70;13.67;;;21.60;24.30;;;;;;4964053;28;20461;-58
2022/07/25 01:32:52;;;;;;;17.20;12.87;;;21.60;24.80;;;;;;4962980;28;20489;-58
2022/07/25 01:35:19;;;;;;;16.50;13.97;;;21.60;24.50;;;;;;4957885;28;20864;-58
2022/07/25 01:37:48;;;;;;;17.07;13.77;;;21.60;24.30;;;;;;4963903;28;20472;-56
2022/07/25 01:40:15;;;;;;;18.70;14.50;;;21.60;25.00;;;;;;4966423;28;20461;-60
2022/07/25 01:42:42;;;;;;;20.47;15.43;;;21.50;24.20;;;;;;4967310;28;20493;-57
2022/07/25 01:45:09;;;;;;;20.00;13.97;;;21.50;24.50;;;;;;4961246;28;20455;-57
2022/07/25 01:47:36;;;;;;;17.57;15.77;;;21.50;25.00;;;;;;4964647;28;20457;-59
2022/07/25 01:50:04;;;;;;;17.60;15.70;;;21.40;25.00;;;;;;4960567;28;20474;-59
2022/07/25 01:52:31;;;;;;;19.97;15.37;;;21.30;25.20;;;;;;4959587;28;20651;-57
2022/07/25 01:54:59;;;;;;;16.97;14.60;;;21.30;25.30;;;;;;4964511;28;20469;-58
2022/07/25 01:57:26;;;;;;;17.30;15.43;;;21.30;25.20;;;;;;4965384;28;20999;-58
2022/07/25 01:59:52;;;;;;;16.53;14.83;;;21.30;25.10;;;;;;4960111;28;20852;-59
2022/07/25 02:02:19;;;;;;;18.37;15.73;;;21.30;25.30;;;;;;4966361;28;20491;-59
2022/07/25 02:04:46;;;;;;;16.90;15.10;;;21.30;25.00;;;;;;4960363;28;20993;-59
2022/07/25 02:07:13;;;;;;;15.70;13.87;;;21.30;24.90;;;;;;4959920;28;20470;-57
2022/07/25 02:09:40;;;;;;;17.17;15.37;;;21.30;25.00;;;;;;4962069;28;20496;-57
2022/07/25 02:12:09;;;;;;;17.10;15.30;;;21.30;24.50;;;;;;4958222;28;21294;-57
2022/07/25 02:14:35;;;;;;;21.10;15.20;;;21.20;24.40;;;;;;4959949;28;20489;-57
2022/07/25 02:17:02;;;;;;;22.83;16.00;;;21.20;24.70;;;;;;4957380;28;20961;-57
2022/07/25 02:19:29;;;;;;;17.33;14.93;;;21.20;25.00;;;;;;4961890;28;20493;-58
2022/07/25 02:21:56;;;;;;;16.40;14.47;;;21.20;25.10;;;;;;4957944;28;20485;-58
2022/07/25 02:24:22;;;;;;;16.73;13.90;;;21.20;25.00;;;;;;4958014;28;20475;-59
2022/07/25 02:26:49;;;;;;;18.47;14.90;;;21.20;24.70;;;;;;4954368;28;20470;-60
2022/07/25 02:29:17;;;;;;;19.03;15.20;;;21.20;25.00;;;;;;4961743;28;20486;-57
2022/07/25 02:31:44;;;;;;;15.73;14.13;;;21.20;25.00;;;;;;4959375;28;21030;-59
2022/07/25 02:34:11;;;;;;;17.53;14.37;;;21.20;25.00;;;;;;4960183;28;20461;-61
2022/07/25 02:36:38;;;;;;;16.53;14.90;;;21.20;25.00;;;;;;4962602;28;20970;-57
2022/07/25 02:39:05;;;;;;;15.47;13.70;;;21.20;24.80;;;;;;4968118;28;20493;-59
2022/07/25 02:41:31;;;;;;;16.77;14.00;;;21.20;24.80;;;;;;4977710;28;20477;-58
2022/07/25 02:43:58;;;;;;;19.03;15.57;;;21.20;24.70;;;;;;4956553;28;20458;-57
2022/07/25 02:46:26;;;;;;;19.20;16.00;;;21.20;24.80;;;;;;4962522;28;20469;-57
2022/07/25 02:48:53;;;;;;;18.73;15.33;;;21.10;25.20;;;;;;4960348;28;20512;-58
2022/07/25 02:51:19;;;;;;;17.47;15.40;;;21.10;24.90;;;;;;4964618;28;20496;-58
2022/07/25 02:53:46;;;;;;;20.10;15.30;;;21.10;25.10;;;;;;4962729;28;20486;-56
2022/07/25 02:56:13;;;;;;;18.83;15.97;;;21.00;25.10;;;;;;4961671;28;20466;-57
2022/07/25 02:58:40;;;;;;;17.30;15.50;;;21.00;25.10;;;;;;4961688;28;20467;-57
2022/07/25 03:01:07;;;;;;;19.03;16.50;;;20.90;25.20;;;;;;4963315;28;20482;-57
2022/07/25 03:03:35;;;;;;;19.23;17.23;;;20.90;25.20;;;;;;4963862;28;20499;-57
2022/07/25 03:06:01;;;;;;;17.87;15.40;;;20.90;25.20;;;;;;4964208;28;20457;-58
2022/07/25 03:08:28;;;;;;;18.87;14.63;;;20.90;25.10;;;;;;4961331;28;20486;-58
2022/07/25 03:10:55;;;;;;;17.07;15.27;;;20.90;25.20;;;;;;4965634;28;20481;-58
2022/07/25 03:13:22;;;;;;;17.07;14.80;;;20.80;25.10;;;;;;4958896;28;20493;-58
2022/07/25 03:15:48;;;;;;;16.37;14.67;;;20.80;25.00;;;;;;4959760;28;20465;-58
2022/07/25 03:18:15;;;;;;;19.70;14.83;;;20.80;25.00;;;;;;4966252;28;20458;-58
2022/07/25 03:20:43;;;;;;;17.07;14.03;;;20.80;24.80;;;;;;4960989;28;20469;-58
2022/07/25 03:23:10;;;;;;;16.27;13.93;;;20.80;24.90;;;;;;4962130;28;20484;-57
2022/07/25 03:25:37;;;;;;;20.63;16.23;;;20.80;25.00;;;;;;5020541;23;20509;-67
2022/07/25 03:28:04;;;;;;;16.40;13.87;;;20.70;25.10;;;;;;5026621;28;20471;-67
2022/07/25 03:30:30;;;;;;;22.20;16.27;;;20.70;24.80;;;;;;5025743;28;21216;-66
2022/07/25 03:32:57;;;;;;;18.30;15.07;;;20.70;25.00;;;;;;5005652;28;20493;-66
2022/07/25 03:35:24;;;;;;;17.93;15.70;;;20.70;25.10;;;;;;5003391;28;20579;-66
2022/07/25 03:37:53;;;;;;;17.20;15.13;;;20.70;25.20;;;;;;5003770;28;20491;-66
2022/07/25 03:40:20;;;;;;;19.97;16.07;;;20.60;25.90;;;;;;5005383;28;20459;-66
2022/07/25 03:42:46;;;;;;;16.50;14.80;;;20.60;26.10;;;;;;5000902;28;20484;-66
2022/07/25 03:45:13;;;;;;;16.07;14.37;;;20.50;26.40;;;;;;4995747;28;20466;-67
2022/07/25 03:47:40;;;;;;;17.57;15.67;;;20.50;26.30;;;;;;5002307;28;20472;-66
2022/07/25 03:50:07;;;;;;;16.97;15.17;;;20.50;26.20;;;;;;4999899;28;20490;-66
2022/07/25 03:52:34;;;;;;;16.83;15.13;;;20.50;26.50;;;;;;5001929;28;20484;-66
2022/07/25 03:55:02;;;;;;;18.00;16.17;;;20.50;26.90;;;;;;4999275;28;20467;-67
2022/07/25 03:57:29;;;;;;;23.33;17.70;;;20.50;26.60;;;;;;5001939;28;20956;-66
2022/07/25 03:59:56;;;;;;;20.40;18.30;;;20.40;26.30;;;;;;4995999;28;21006;-67
2022/07/25 04:02:22;;;;;;;22.63;18.40;;;20.40;26.50;;;;;;4996534;28;20996;-66
2022/07/25 04:04:50;;;;;;;20.23;17.43;;;20.40;26.30;;;;;;5001733;28;20510;-66
2022/07/25 04:07:18;;;;;;;18.50;16.60;;;20.30;26.20;;;;;;4996666;28;20472;-66
2022/07/25 04:09:45;;;;;;;20.90;16.83;;;20.40;26.00;;;;;;5001860;28;20488;-66
2022/07/25 04:12:13;;;;;;;21.60;17.53;;;20.40;26.00;;;;;;5004292;28;20583;-66
2022/07/25 04:14:40;;;;;;;20.20;17.57;;;20.40;26.00;;;;;;5001178;28;20982;-66
2022/07/25 04:17:07;;;;;;;20.70;17.67;;;20.40;26.10;;;;;;5001055;28;20468;-66
2022/07/25 04:19:33;;;;;;;19.77;17.67;;;20.40;25.90;;;;;;5002873;28;20468;-66
2022/07/25 04:22:00;;;;;;;20.67;17.63;;;20.40;25.80;;;;;;4998951;28;20566;-66
2022/07/25 04:24:27;;;;;;;23.73;18.40;;;20.50;26.10;;;;;;5001895;28;20487;-67
2022/07/25 04:26:54;;;;;;;23.03;17.10;;;20.50;26.20;;;;;;5002989;28;20460;-67
2022/07/25 04:29:22;;;;;;;19.23;17.07;;;20.50;26.10;;;;;;4998680;28;20484;-68
2022/07/25 04:31:48;;;;;;;20.40;17.07;;;20.50;25.90;;;;;;4999255;28;20490;-67
2022/07/25 04:34:15;;;;;;;17.87;15.23;;;20.60;25.80;;;;;;4998279;28;20495;-67
2022/07/25 04:36:42;;;;;;;18.70;15.20;;;20.70;25.90;;;;;;5001524;28;20474;-67
2022/07/25 04:39:09;;;;;;;18.40;14.83;;;20.80;26.30;;;;;;5001713;28;20479;-67
2022/07/25 04:41:36;;;;;;;18.60;16.63;;;20.80;26.60;;;;;;5001875;28;20492;-67
2022/07/25 04:44:02;;;;;;;17.63;15.73;;;20.90;26.20;;;;;;5004142;28;20471;-67
2022/07/25 04:46:30;;;;;;;21.07;17.90;;;21.00;26.10;;;;;;5000459;28;20456;-68
2022/07/25 04:48:57;;;;;;;20.87;18.43;;;21.00;26.70;;;;;;4998967;28;20489;-67
2022/07/25 04:51:24;;;;;;;19.27;16.53;;;21.10;27.80;;;;;;5002274;28;20495;-67
2022/07/25 04:53:51;;;;;;;19.73;17.73;;;21.20;28.10;;;;;;5001560;28;20472;-67
2022/07/25 04:56:18;;;;;;;20.63;17.13;;;21.20;28.90;;;;;;5002845;28;20464;-67
2022/07/25 04:58:45;;;;;;;18.67;16.67;;;21.30;29.10;;;;;;5001753;28;20876;-67
2022/07/25 05:01:11;;;;;;;21.20;18.43;;;21.50;29.70;;;;;;5003849;28;20483;-67
2022/07/25 05:03:39;;;;;;;19.70;17.00;;;22.50;28.70;;;;;;5010761;28;20463;-67
2022/07/25 05:06:07;;;;;;;17.90;16.00;;;23.80;25.00;;;;;;5012608;28;20990;-69
2022/07/25 05:08:34;;;;;;;17.30;15.60;;;25.20;21.20;;;;;;5015177;28;20478;-69
2022/07/25 05:11:00;;;;;;;18.67;16.67;;;26.30;18.30;;;;;;5002565;28;20987;-68
2022/07/25 05:13:27;;;;;;;18.20;16.30;;;27.30;16.10;;;;;;5007904;28;20498;-68
2022/07/25 05:15:54;;;;;;;18.07;15.77;;;28.20;14.50;;;;;;5004330;28;20475;-69
2022/07/25 05:18:21;;;;;;;17.47;15.77;;;29.10;13.00;;;;;;5006689;28;20457;-70
2022/07/25 05:20:49;;;;;;;17.23;15.63;;;29.90;11.30;;;;;;5009341;28;20460;-69
2022/07/25 05:23:16;;;;;;;16.07;14.37;;;30.60;9.80;;;;;;5013756;28;21213;-69
2022/07/25 05:25:43;;;;;;;16.83;15.20;;;31.30;8.60;;;;;;5008673;28;20474;-67
2022/07/25 05:28:10;;;;;;;15.63;14.20;;;32.00;7.40;;;;;;5004270;28;20469;-68
2022/07/25 05:30:36;;;;;;;16.80;15.20;;;32.80;5.90;;;;;;5001254;28;21067;-69
2022/07/25 05:33:04;;;;;;;18.10;14.63;;;33.40;5.00;;;;;;5003530;28;20483;-70
2022/07/25 05:35:30;;;;;;;16.40;14.90;;;34.10;4.40;;;;;;4998564;28;20843;-69
2022/07/25 05:37:59;;;;;;;15.80;14.27;;;34.70;3.10;;;;;;4998294;28;21060;-68
2022/07/25 05:40:26;;;;;;;15.13;13.70;;;35.40;2.30;;;;;;4997356;28;20538;-68
2022/07/25 05:42:53;;;;;;;16.30;14.80;;;35.90;1.20;;;;;;5004180;28;20486;-69
2022/07/25 05:45:19;;;;;;;16.27;14.67;;;36.50;1.00;;;;;;5001613;28;20471;-68
2022/07/25 05:47:46;;;;;;;15.40;14.03;;;37.00;1.00;;;;;;4999850;28;20451;-68
2022/07/25 05:50:13;;;;;;;16.17;14.47;;;37.60;1.00;;;;;;5001610;28;20490;-69
2022/07/25 05:52:40;;;;;;;14.90;13.50;;;38.20;1.00;;;;;;5000541;28;20495;-69
2022/07/25 05:55:09;;;;;;;15.67;14.27;;;38.80;1.00;;;;;;4995935;28;20472;-68
2022/07/25 05:57:36;;;;;;;16.57;14.33;;;39.30;1.00;;;;;;5001085;28;20944;-68
2022/07/25 06:00:05;;;;;;;18.13;13.97;;;39.80;1.00;;;;;;5000947;28;20479;-68
2022/07/25 06:02:31;;;;;;;15.30;13.90;;;40.30;1.00;;;;;;5003933;28;20530;-68
2022/07/25 06:04:59;;;;;;;18.00;14.27;;;40.90;1.00;;;;;;5000794;28;20464;-68
2022/07/25 06:07:26;;;;;;;14.80;13.30;;;41.30;1.00;;;;;;5008028;28;20462;-68
2022/07/25 06:09:52;;;;;;;15.07;13.70;;;41.70;1.00;;;;;;5006038;28;20486;-68
2022/07/25 06:12:21;;;;;;;14.53;13.23;;;42.20;1.00;;;;;;5016523;28;20497;-68
2022/07/25 06:14:47;;;;;;;14.53;13.23;;;42.70;1.00;;;;;;5011909;28;20470;-68
2022/07/25 06:17:14;;;;;;;14.47;13.17;;;43.20;1.00;;;;;;5007331;28;20556;-68
2022/07/25 06:19:41;;;;;;;14.43;13.23;;;43.70;1.00;;;;;;5007853;28;20452;-68
2022/07/25 06:22:08;;;;;;;15.10;13.80;;;44.10;1.00;;;;;;5012261;28;20504;-68
2022/07/25 06:24:35;;;;;;;13.70;12.50;;;44.50;1.00;;;;;;5009518;28;20475;-68
2022/07/25 06:27:01;;;;;;;14.13;12.83;;;45.00;1.00;;;;;;5013338;28;20461;-68
2022/07/25 06:29:30;;;;;;;15.47;14.07;;;45.30;1.00;;;;;;5013622;28;20498;-68
2022/07/25 06:31:56;;;;;;;14.07;12.60;;;45.80;1.00;;;;;;5012534;28;20490;-68
2022/07/25 06:34:23;;;;;;;14.17;12.80;;;46.20;1.00;;;;;;5006604;28;20472;-68
2022/07/25 06:36:50;;;;;;;13.93;12.73;;;46.60;1.00;;;;;;5009590;28;20470;-68
2022/07/25 06:39:16;;;;;;;16.33;12.10;;;47.10;1.00;;;;;;5014235;28;20464;-68
2022/07/25 06:41:43;;;;;;;13.50;12.40;;;47.60;1.00;;;;;;5005467;28;20486;-68
2022/07/25 06:44:10;;;;;;;14.30;12.83;;;48.10;1.00;;;;;;5008183;28;20456;-68
2022/07/25 06:46:38;;;;;;;13.33;12.17;;;48.60;1.00;;;;;;5015305;28;20459;-68
2022/07/25 06:49:05;;;;;;;12.93;11.83;;;49.00;1.00;;;;;;5012077;28;21008;-68
2022/07/25 06:51:32;;;;;;;13.60;12.27;;;49.40;1.00;;;;;;5011798;28;20562;-68
2022/07/25 06:54:00;;;;;;;12.60;11.50;;;49.70;1.00;;;;;;5007557;28;20467;-68
2022/07/25 06:56:30;;;;;;;12.80;11.70;;;50.10;1.00;;;;;;5014674;28;20466;-68
2022/07/25 07:02:20;;;;;;;13.33;12.23;;;51.00;1.00;;;;;;4995530;28;20503;-68
2022/07/25 07:04:47;;;;;;;12.30;11.10;;;51.50;1.00;;;;;;5010159;28;20466;-68
2022/07/25 07:07:15;;;;;;;12.70;11.50;;;51.80;1.00;;;;;;5011563;28;20473;-68
2022/07/25 07:09:42;;;;;;;12.60;11.43;;;52.10;1.00;;;;;;5009866;28;20486;-68
2022/07/25 07:12:09;;;;;;;11.43;10.47;;;52.30;1.00;;;;;;5012259;28;20482;-68
2022/07/25 07:14:38;;;;;;;12.40;11.30;;;52.50;1.00;;;;;;5008299;28;20463;-68
2022/07/25 07:17:05;;;;;;;12.03;10.93;;;53.00;1.00;;;;;;5008350;28;20455;-68
2022/07/25 07:19:37;;;;;;;11.63;10.73;;;53.30;1.00;;;;;;5006859;28;20467;-68
2022/07/25 07:22:04;;;;;;;12.70;11.70;;;53.60;1.00;;;;;;5010598;28;20483;-68
2022/07/25 07:24:31;;;;;;;12.73;11.73;;;53.80;1.00;;;;;;5005121;28;20471;-68
2022/07/25 07:26:58;;;;;;;11.57;10.60;;;53.90;1.00;;;;;;5010836;28;20472;-68
2022/07/25 07:29:24;;;;;;;11.70;10.70;;;54.20;1.00;;;;;;5004494;28;20470;-68
2022/07/25 07:31:51;;;;;;;12.13;11.13;;;54.60;1.00;;;;;;5005415;28;20480;-68
2022/07/25 07:34:18;;;;;;;11.20;10.27;;;55.10;1.00;;;;;;5009191;28;20470;-68
2022/07/25 07:36:46;;;;;;;11.70;10.70;;;55.30;1.00;;;;;;5009932;28;20475;-68
2022/07/25 07:39:15;;;;;;;11.23;10.23;;;55.50;1.00;;;;;;5011106;28;20460;-68
2022/07/25 07:41:42;;;;;;;10.87;9.97;;;55.60;1.00;;;;;;5007943;28;20515;-68
2022/07/25 07:44:09;;;;;;;11.23;10.13;;;56.00;1.00;;;;;;5014901;28;20467;-68
2022/07/25 07:46:35;;;;;;;11.00;10.10;;;56.10;1.00;;;;;;5004176;28;20466;-68
2022/07/25 07:49:02;;;;;;;11.10;10.00;;;56.50;1.00;;;;;;5009935;28;20472;-68
2022/07/25 07:51:29;;;;;;;10.80;9.80;;;56.70;1.00;;;;;;5006432;28;20487;-68
2022/07/25 07:56:41;;;;;;;9.43;8.63;;;57.20;1.00;;;;;;5007428;28;20215;-68
2022/07/25 07:59:10;;;;;;;10.18;9.27;;;57.60;1.00;;;;;;5011802;28;20219;-68
2022/07/25 08:01:37;;;;;;;10.25;9.27;;;58.20;1.00;;;;;;5005924;28;20252;-69
2022/07/25 08:04:04;;;;;;;10.05;9.15;;;58.70;1.00;;;;;;5010414;28;20214;-69
2022/07/25 08:06:31;;;;;;;9.25;8.38;;;59.00;1.00;;;;;;5009802;28;20192;-69
2022/07/25 08:08:59;;;;;;;10.40;9.50;;;59.20;1.00;;;;;;5010192;28;20208;-69
2022/07/25 08:11:26;;;;;;;9.15;8.25;;;59.50;1.00;;;;;;5004052;28;20798;-68
2022/07/25 08:13:52;;;;;;;8.55;7.85;;;59.60;1.00;;;;;;4991906;28;20209;-68
2022/07/25 08:16:19;;;;;;;9.45;8.30;;;60.10;1.00;;;;;;5003660;28;20216;-69
2022/07/25 08:18:46;;;;;;;9.25;8.45;;;60.20;1.00;;;;;;5002251;28;20581;-69
2022/07/25 08:21:13;;;;;;;10.68;8.30;;;60.20;1.00;;;;;;5006891;28;20199;-69
2022/07/25 08:23:40;;;;;;;8.02;7.32;;;60.40;1.00;;;;;;5006398;28;20214;-69
2022/07/25 08:26:08;;;;;;;8.40;7.70;;;60.40;1.00;;;;;;5001297;28;20213;-68
2022/07/25 08:28:35;;;;;;;8.45;7.55;;;60.70;1.00;;;;;;5007621;28;20200;-68
2022/07/25 08:31:02;;;;;;;8.48;7.78;;;60.90;1.00;;;;;;5001821;28;20700;-68
2022/07/25 08:33:28;;;;;;;8.68;7.78;;;61.00;1.00;;;;;;5005388;28;20212;-69
2022/07/25 08:35:57;;;;;;;9.20;8.30;;;61.00;1.00;;;;;;5006765;28;20200;-69
2022/07/25 08:38:26;;;;;;;8.90;7.90;;;60.90;1.00;;;;;;5002941;28;20278;-69
2022/07/25 08:40:54;;;;;;;8.38;7.57;;;61.10;1.00;;;;;;5007650;28;20196;-69
2022/07/25 08:43:23;;;;;;;9.27;8.35;;;61.20;1.00;;;;;;5004414;28;20217;-68
2022/07/25 08:45:51;;;;;;;9.68;8.50;;;61.30;1.00;;;;;;4998646;28;20301;-68
2022/07/25 08:48:20;;;;;;;8.98;8.23;;;61.80;1.00;;;;;;4993840;28;20231;-68
2022/07/25 08:50:48;;;;;;;8.75;8.05;;;62.00;1.00;;;;;;5008086;28;20230;-69
2022/07/25 08:53:17;;;;;;;8.68;7.90;;;62.20;1.00;;;;;;5008065;28;20278;-69
2022/07/25 08:55:45;;;;;;;9.23;8.32;;;61.90;1.00;;;;;;5001103;28;20208;-69
2022/07/25 08:58:14;;;;;;;9.45;8.65;;;62.20;1.00;;;;;;5008030;28;20208;-69
2022/07/25 09:00:42;;;;;;;9.63;8.32;;;62.40;1.00;;;;;;5003823;28;20248;-69
2022/07/25 09:03:10;;;;;;;8.48;7.75;;;62.30;1.00;;;;;;5001527;28;20701;-68
2022/07/25 09:05:37;;;;;;;9.43;8.48;;;62.30;1.00;;;;;;5000302;28;20677;-69
2022/07/25 09:08:09;;;;;;;8.00;7.30;;;62.30;1.00;;;;;;5003657;28;20712;-69
2022/07/25 09:10:36;;;;;;;8.25;7.47;;;62.30;1.00;;;;;;5007178;28;20591;-69
2022/07/25 09:13:06;;;;;;;8.48;7.80;;;62.50;1.00;;;;;;5000434;28;20475;-69
2022/07/25 09:15:35;;;;;;;8.20;7.30;;;62.30;1.00;;;;;;4996447;28;20640;-69
2022/07/25 09:18:05;;;;;;;8.85;8.05;;;62.30;1.00;;;;;;4996647;28;20275;-69
2022/07/25 09:20:40;;;;;;;8.10;7.40;;;62.40;1.00;;;;;;5006568;28;20189;-69
2022/07/25 09:23:07;;;;;;;7.43;6.82;;;62.50;1.00;;;;;;4991058;28;20225;-68
2022/07/25 09:25:34;;;;;;;8.32;7.50;;;62.40;1.00;;;;;;4998346;28;20377;-68
2022/07/25 09:28:11;;;;;;;7.70;7.00;;;62.70;1.00;;;;;;4994786;28;20208;-68
2022/07/25 09:30:38;;;;;;;8.13;7.53;;;62.50;1.00;;;;;;4999524;28;20228;-68
2022/07/25 09:33:06;;;;;;;7.80;7.10;;;62.40;1.00;;;;;;4999291;28;20224;-68
2022/07/25 09:35:37;;;;;;;8.10;7.40;;;61.80;1.00;;;;;;5003814;28;20200;-68
2022/07/25 09:38:11;;;;;;;8.23;7.47;;;61.70;1.00;;;;;;5009590;28;20200;-69
2022/07/25 09:40:38;;;;;;;7.38;6.70;;;61.70;1.00;;;;;;5002738;28;20221;-69
2022/07/25 09:43:05;;;;;;;7.95;7.20;;;61.70;1.00;;;;;;5008844;28;20221;-68
2022/07/25 09:45:33;;;;;;;8.38;7.68;;;61.70;1.00;;;;;;5005276;28;20196;-69
2022/07/25 09:48:01;;;;;;;9.98;6.72;;;61.70;1.00;;;;;;4998801;28;20197;-69
2022/07/25 09:50:31;;;;;;;7.57;6.88;;;61.80;1.00;;;;;;4998713;28;20201;-68
2022/07/25 09:53:01;;;;;;;8.52;7.63;;;61.40;1.00;;;;;;5003370;28;20224;-69
2022/07/25 09:55:29;;;;;;;8.85;7.50;;;60.40;1.00;;;;;;5005083;28;20669;-69
2022/07/25 09:57:56;;;;;;;8.85;6.75;;;58.50;1.00;;;;;;5002184;28;20208;-69
2022/07/25 10:00:26;;;;;;;8.00;7.30;;;55.80;1.00;;;;;;4994891;28;20217;-69
2022/07/25 10:03:24;;;;;;;8.43;7.50;;;53.30;1.00;;;;;;4997758;28;20705;-69
2022/07/25 10:06:07;;;;;;;9.90;8.90;;;51.20;1.00;;;;;;4971097;28;20805;-69
2022/07/25 10:08:36;;;;;;;8.57;7.87;;;49.10;1.00;;;;;;4993247;28;20538;-69
2022/07/25 10:11:05;;;;;;;7.40;6.70;;;47.70;1.00;;;;;;4994249;28;20487;-69
2022/07/25 10:13:34;;;;;;;10.93;7.53;;;46.50;1.00;;;;;;4995194;28;20464;-69
2022/07/25 10:16:01;;;;;;;8.30;7.60;;;45.50;1.00;;;;;;4990059;28;20472;-69
2022/07/25 10:18:30;;;;;;;8.30;7.50;;;44.60;1.00;;;;;;5004338;28;20468;-69
2022/07/25 10:21:11;;;;;;;8.53;7.73;;;43.70;1.00;;;;;;5008677;28;20492;-68
2022/07/25 10:23:38;;;;;;;7.33;6.53;;;42.90;1.00;;;;;;5008840;28;20456;-68
2022/07/25 10:26:09;;;;;;;8.27;7.47;;;42.40;1.00;;;;;;4989966;28;20473;-69
2022/07/25 10:28:41;;;;;;;8.13;7.33;;;41.70;1.00;;;;;;5003656;28;21193;-68
2022/07/25 10:31:21;;;;;;;8.00;7.17;;;41.10;1.00;;;;;;5003882;28;20565;-68
2022/07/25 10:33:50;;;;;;;8.63;6.83;;;40.60;1.00;;;;;;5001888;28;20494;-69
2022/07/25 10:36:19;;;;;;;8.50;7.60;;;40.10;1.00;;;;;;4992069;28;20465;-69
2022/07/25 10:38:46;;;;;;;7.77;6.13;;;39.70;1.00;;;;;;5004454;28;20468;-68
2022/07/25 10:41:15;;;;;;;7.67;6.97;;;39.40;1.00;;;;;;5008238;28;20523;-69
2022/07/25 10:43:46;;;;;;;9.60;7.63;;;39.10;1.00;;;;;;4998630;28;20464;-68
2022/07/25 10:46:14;;;;;;;8.53;7.63;;;38.70;1.00;;;;;;4992154;28;20817;-68
2022/07/25 10:48:41;;;;;;;10.23;7.20;;;38.40;1.00;;;;;;5002593;28;21039;-68
2022/07/25 10:51:10;;;;;;;8.33;7.53;;;38.10;1.00;;;;;;4998133;28;20469;-68
2022/07/25 10:53:48;;;;;;;10.30;6.77;;;37.90;1.00;;;;;;4989602;28;20472;-68
2022/07/25 10:56:16;;;;;;;6.93;6.23;;;37.70;1.00;;;;;;4989570;28;20468;-68
2022/07/25 10:58:45;;;;;;;10.10;7.37;;;37.50;1.00;;;;;;5006425;28;21025;-68
2022/07/25 11:01:13;;;;;;;8.43;6.90;;;37.30;1.00;;;;;;5009374;28;20510;-68
2022/07/25 11:03:43;;;;;;;8.77;7.00;;;37.10;1.00;;;;;;4998675;28;20942;-68
2022/07/25 11:06:11;;;;;;;8.57;7.40;;;37.00;1.00;;;;;;5001913;28;20476;-68
2022/07/25 11:08:39;;;;;;;12.10;7.97;;;36.90;1.00;;;;;;5000650;28;20803;-68
2022/07/25 11:11:06;;;;;;;9.60;7.60;;;36.80;1.00;;;;;;5002570;28;20984;-68
2022/07/25 11:13:37;;;;;;;9.03;7.60;;;36.70;1.00;;;;;;5008785;28;20471;-68
2022/07/25 11:16:05;;;;;;;8.00;7.20;;;36.70;1.00;;;;;;5013182;28;20471;-68
2022/07/25 11:18:33;;;;;;;7.90;7.10;;;36.60;1.00;;;;;;5001828;28;21139;-68
2022/07/25 11:21:01;;;;;;;8.00;7.20;;;36.50;1.00;;;;;;5008201;28;20486;-68
2022/07/25 11:23:28;;;;;;;8.80;7.90;;;36.40;1.00;;;;;;5009517;28;20464;-68
2022/07/25 11:26:06;;;;;;;7.27;6.57;;;36.30;1.00;;;;;;4995849;28;20468;-68
2022/07/25 11:28:41;;;;;;;10.00;9.00;;;36.20;1.00;;;;;;4998974;28;20547;-68
2022/07/25 11:31:08;;;;;;;8.63;7.83;;;36.20;1.00;;;;;;5005204;28;20466;-68
2022/07/25 11:33:35;;;;;;;8.93;8.03;;;36.10;1.00;;;;;;5001936;28;20470;-68
2022/07/25 11:36:03;;;;;;;8.90;8.10;;;36.10;1.00;;;;;;4992203;28;20465;-68
2022/07/25 11:38:30;;;;;;;8.77;7.60;;;36.10;1.00;;;;;;4999547;28;20470;-68
2022/07/25 11:40:56;;;;;;;8.53;7.63;;;36.00;1.00;;;;;;5002665;28;20488;-69
2022/07/25 11:43:25;;;;;;;8.60;7.70;;;36.00;1.00;;;;;;5004535;28;20928;-68
2022/07/25 11:46:00;;;;;;;8.40;7.60;;;35.90;1.00;;;;;;5005111;28;20468;-69
2022/07/25 11:48:35;;;;;;;9.80;7.10;;;35.90;1.00;;;;;;4998709;28;20455;-68
2022/07/25 11:51:11;;;;;;;9.27;8.37;;;35.80;1.00;;;;;;5007506;28;20461;-69
2022/07/25 11:53:43;;;;;;;8.30;7.40;;;35.80;1.00;;;;;;5010125;28;20471;-68
2022/07/25 11:56:15;;;;;;;9.50;8.17;;;35.80;1.00;;;;;;5005962;28;20486;-68
2022/07/25 11:58:44;;;;;;;7.70;6.90;;;35.70;1.00;;;;;;5008045;28;20476;-68
2022/07/25 12:01:12;;;;;;;8.60;7.80;;;35.80;1.00;;;;;;5004644;28;20906;-68
2022/07/25 12:03:39;;;;;;;9.03;8.23;;;35.60;1.00;;;;;;5005737;28;20476;-68
2022/07/25 12:06:08;;;;;;;9.37;7.83;;;35.60;1.00;;;;;;5005039;28;20460;-67
2022/07/25 12:08:38;;;;;;;10.30;9.37;;;35.60;1.00;;;;;;4992300;28;20502;-68
2022/07/25 12:11:16;;;;;;;9.33;8.43;;;35.50;1.00;;;;;;4999981;28;20479;-68
2022/07/25 12:13:45;;;;;;;9.70;8.70;;;35.50;1.00;;;;;;5007243;28;20464;-68
2022/07/25 12:16:12;;;;;;;8.07;7.27;;;35.40;1.00;;;;;;4995585;28;21040;-68
2022/07/25 12:18:39;;;;;;;8.93;8.03;;;35.40;1.00;;;;;;4988911;28;20495;-68
2022/07/25 12:21:06;;;;;;;9.33;8.33;;;35.40;1.00;;;;;;4996037;28;20483;-68
2022/07/25 12:23:33;;;;;;;9.63;8.60;;;35.30;1.00;;;;;;4999674;28;20470;-68
2022/07/25 12:26:00;;;;;;;9.10;8.20;;;35.30;1.00;;;;;;5005162;28;20467;-68
2022/07/25 12:28:28;;;;;;;8.67;7.77;;;35.20;1.00;;;;;;5009080;28;20459;-68
2022/07/25 12:30:56;;;;;;;8.70;7.80;;;35.10;1.00;;;;;;5007799;28;20610;-68
2022/07/25 12:33:23;;;;;;;10.23;8.07;;;35.00;1.00;;;;;;5007495;28;20480;-68
2022/07/25 12:35:50;;;;;;;8.63;7.73;;;35.00;1.00;;;;;;5000317;28;20983;-68
2022/07/25 12:38:17;;;;;;;9.27;8.20;;;34.90;1.00;;;;;;4997806;28;20824;-68
2022/07/25 12:40:44;;;;;;;10.17;8.50;;;34.90;1.00;;;;;;5008229;28;20474;-68
2022/07/25 12:43:10;;;;;;;11.73;9.00;;;34.90;1.00;;;;;;5004772;28;20487;-68
2022/07/25 12:45:37;;;;;;;10.63;9.63;;;34.90;1.00;;;;;;4997658;28;20473;-68
2022/07/25 12:48:06;;;;;;;9.60;8.80;;;34.90;1.00;;;;;;4992440;28;20468;-68
2022/07/25 12:50:33;;;;;;;9.40;8.40;;;34.90;1.00;;;;;;5005536;28;20460;-68